Time;durP1;ratioP1;P1;durP2;ratioP2;P2;SDS_P1;SDS_P2;PMS_P1;PMS_P2;Temp;Humidity;BMP_temperature;BMP_pressure;BME280_temperature;BME280_humidity;BME280_pressure;Samples;Min_cycle;Max_cycle;Signal;HPM_P1;HPM_P2
2023/10/01 00:01:08;;;;;;;14.20;4.90;;;;;;;10.23;100.00;97523.23;111770;1244;22504;-81
2023/10/01 00:03:56;;;;;;;11.10;4.80;;;;;;;10.23;100.00;97525.48;111754;1243;28507;-81
2023/10/01 00:06:25;;;;;;;12.20;4.20;;;;;;;10.22;100.00;97526.69;111771;1244;25383;-81
2023/10/01 00:08:57;;;;;;;6.50;2.80;;;;;;;10.17;100.00;97524.67;111764;1244;22506;-81
2023/10/01 00:11:27;;;;;;;14.90;4.50;;;;;;;10.13;100.00;97526.27;111754;1244;22771;-81
2023/10/01 00:13:55;;;;;;;8.10;4.50;;;;;;;10.12;100.00;97521.17;111743;1244;23015;-81
2023/10/01 00:16:23;;;;;;;10.80;4.90;;;;;;;10.15;100.00;97520.52;111742;1244;22537;-81
2023/10/01 00:18:54;;;;;;;9.70;4.50;;;;;;;10.12;100.00;97518.78;111719;1244;22508;-81
2023/10/01 00:21:22;;;;;;;10.70;4.60;;;;;;;10.06;100.00;97523.67;111791;1244;22518;-81
2023/10/01 00:23:53;;;;;;;11.70;4.50;;;;;;;10.00;100.00;97522.40;111729;1244;23436;-81
2023/10/01 00:26:22;;;;;;;9.90;4.10;;;;;;;9.95;100.00;97521.61;111788;1244;22521;-81
2023/10/01 00:28:51;;;;;;;11.60;4.60;;;;;;;9.93;100.00;97517.09;111726;1244;22902;-81
2023/10/01 00:31:20;;;;;;;13.90;5.10;;;;;;;9.97;100.00;97516.48;111740;1244;22503;-80
2023/10/01 00:33:48;;;;;;;13.70;4.90;;;;;;;10.03;100.00;97513.86;111715;1244;22610;-81
2023/10/01 00:36:17;;;;;;;9.70;3.90;;;;;;;10.08;100.00;97518.45;111766;1244;25232;-81
2023/10/01 00:38:45;;;;;;;12.60;4.30;;;;;;;10.11;100.00;97516.92;111761;1244;22505;-81
2023/10/01 00:41:16;;;;;;;12.00;4.80;;;;;;;10.10;100.00;97518.61;111752;1244;22513;-81
2023/10/01 00:43:45;;;;;;;9.20;4.20;;;;;;;10.12;100.00;97512.64;111719;1244;22494;-80
2023/10/01 00:46:13;;;;;;;12.00;4.80;;;;;;;10.15;100.00;97509.77;111771;1244;26565;-81
2023/10/01 00:48:42;;;;;;;10.60;4.60;;;;;;;10.17;100.00;97509.61;111732;1244;22511;-81
2023/10/01 00:51:10;;;;;;;11.10;4.10;;;;;;;10.22;100.00;97505.90;111741;1244;22516;-81
2023/10/01 00:53:39;;;;;;;10.20;4.00;;;;;;;10.27;100.00;97507.58;111702;1244;22920;-81
2023/10/01 00:56:09;;;;;;;12.60;4.60;;;;;;;10.29;100.00;97511.88;111749;1244;22521;-81
2023/10/01 00:58:38;;;;;;;15.10;4.70;;;;;;;10.32;100.00;97513.95;111774;1244;22520;-81
2023/10/01 01:01:08;;;;;;;8.60;4.20;;;;;;;10.36;100.00;97508.30;111751;1244;22507;-81
2023/10/01 01:03:37;;;;;;;11.20;4.20;;;;;;;10.39;100.00;97504.23;111765;1244;22583;-81
2023/10/01 01:06:17;;;;;;;9.30;4.00;;;;;;;10.38;100.00;97502.95;111761;1244;22497;-81
2023/10/01 01:08:47;;;;;;;11.50;4.20;;;;;;;10.35;100.00;97503.31;111748;1244;22940;-81
2023/10/01 01:11:16;;;;;;;9.20;3.70;;;;;;;10.35;100.00;97505.85;111767;1244;22507;-81
2023/10/01 01:13:44;;;;;;;10.70;4.10;;;;;;;10.35;100.00;97504.90;111737;1243;22526;-81
2023/10/01 01:16:14;;;;;;;14.80;4.80;;;;;;;10.37;100.00;97505.86;111758;1244;22495;-81
2023/10/01 01:18:42;;;;;;;9.80;4.50;;;;;;;10.39;100.00;97506.52;111770;1244;22508;-81
2023/10/01 01:21:11;;;;;;;9.90;4.40;;;;;;;10.38;100.00;97501.73;111753;1244;22503;-81
2023/10/01 01:23:41;;;;;;;14.70;4.80;;;;;;;10.36;100.00;97501.41;111716;1244;22532;-81
2023/10/01 01:26:11;;;;;;;11.20;4.20;;;;;;;10.32;100.00;97498.05;111782;1244;22509;-81
2023/10/01 01:28:41;;;;;;;13.80;4.60;;;;;;;10.27;100.00;97501.66;111793;1244;22501;-81
2023/10/01 01:31:10;;;;;;;12.50;4.70;;;;;;;10.22;100.00;97501.45;111783;1244;22504;-81
2023/10/01 01:33:44;;;;;;;11.60;4.40;;;;;;;10.19;100.00;97501.78;111728;1244;25348;-81
2023/10/01 01:36:12;;;;;;;16.80;5.60;;;;;;;10.19;100.00;97498.49;111774;1244;22565;-81
2023/10/01 01:39:09;;;;;;;12.80;5.40;;;;;;;10.17;100.00;97500.34;111746;1239;25285;-81
2023/10/01 01:41:42;;;;;;;13.30;4.90;;;;;;;10.15;100.00;97495.83;111740;1244;22521;-81
2023/10/01 01:44:14;;;;;;;13.20;4.60;;;;;;;10.14;100.00;97493.55;111727;1244;24367;-81
2023/10/01 01:46:48;;;;;;;12.30;4.90;;;;;;;10.11;100.00;97496.52;111737;1244;23242;-81
2023/10/01 01:49:18;;;;;;;12.00;4.20;;;;;;;10.06;100.00;97496.96;111759;1244;22596;-81
2023/10/01 01:51:57;;;;;;;12.00;4.50;;;;;;;10.02;100.00;97494.23;111744;1244;22552;-81
2023/10/01 01:54:27;;;;;;;9.90;4.30;;;;;;;10.00;100.00;97494.17;111822;1244;24530;-81
2023/10/01 01:56:56;;;;;;;16.20;4.90;;;;;;;9.95;100.00;97492.80;111760;1244;22538;-81
2023/10/01 01:59:27;;;;;;;14.00;5.00;;;;;;;9.94;100.00;97491.93;111724;1244;22571;-81
2023/10/01 02:01:56;;;;;;;14.40;5.20;;;;;;;9.93;100.00;97491.61;111745;1244;22547;-81
2023/10/01 02:04:24;;;;;;;14.70;5.10;;;;;;;9.93;100.00;97493.67;111717;1229;22489;-81
2023/10/01 02:06:54;;;;;;;13.80;4.40;;;;;;;9.94;100.00;97500.09;111737;1244;23998;-81
2023/10/01 02:09:24;;;;;;;14.40;4.10;;;;;;;9.92;100.00;97498.75;111762;1244;22499;-81
2023/10/01 02:11:53;;;;;;;14.90;5.40;;;;;;;9.90;100.00;97491.85;111730;1244;22519;-81
2023/10/01 02:14:35;;;;;;;10.70;4.60;;;;;;;9.90;100.00;97488.30;111732;1244;25379;-82
2023/10/01 02:17:13;;;;;;;16.70;5.50;;;;;;;9.90;100.00;97494.39;111757;1244;25254;-82
2023/10/01 02:19:46;;;;;;;15.50;4.60;;;;;;;9.86;100.00;97498.59;111750;1244;25376;-82
2023/10/01 02:22:16;;;;;;;8.20;4.10;;;;;;;9.82;100.00;97496.48;111779;1244;23486;-82
2023/10/01 02:24:54;;;;;;;12.80;4.20;;;;;;;9.78;100.00;97494.13;111730;1244;26481;-82
2023/10/01 02:27:28;;;;;;;16.40;4.90;;;;;;;9.71;100.00;97495.21;111877;1244;23055;-81
2023/10/01 02:30:14;;;;;;;12.00;4.90;;;;;;;9.66;100.00;97498.30;111814;1244;25221;-80
2023/10/01 02:32:49;;;;;;;11.80;4.30;;;;;;;9.64;100.00;97500.45;111763;1244;24911;-81
2023/10/01 02:35:36;;;;;;;13.90;4.20;;;;;;;9.59;100.00;97506.27;111721;1244;22501;-82
2023/10/01 02:38:07;;;;;;;10.60;4.10;;;;;;;9.47;100.00;97510.92;111743;1244;22542;-81
2023/10/01 02:40:37;;;;;;;12.10;5.00;;;;;;;9.38;100.00;97512.77;111734;1244;22533;-82
2023/10/01 02:43:12;;;;;;;13.90;4.40;;;;;;;9.30;100.00;97508.20;111730;1244;23091;-81
2023/10/01 02:45:42;;;;;;;14.20;4.20;;;;;;;9.20;100.00;97501.15;111738;1244;22531;-81
2023/10/01 02:48:13;;;;;;;10.50;4.50;;;;;;;9.12;100.00;97494.79;111770;1244;25566;-81
2023/10/01 02:50:45;;;;;;;8.60;4.80;;;;;;;9.09;100.00;97495.94;111763;1244;23862;-81
2023/10/01 02:53:14;;;;;;;11.20;5.50;;;;;;;9.12;100.00;97491.58;111782;1244;24246;-81
2023/10/01 02:55:46;;;;;;;9.80;6.20;;;;;;;9.16;100.00;97485.77;111787;1244;22597;-82
2023/10/01 02:58:20;;;;;;;9.60;6.10;;;;;;;9.19;100.00;97488.77;111750;1244;22525;-81
2023/10/01 03:00:53;;;;;;;8.90;6.00;;;;;;;9.21;100.00;97482.59;111787;1244;22518;-81
2023/10/01 03:03:32;;;;;;;10.60;5.70;;;;;;;9.24;100.00;97483.66;111728;1244;24236;-81
2023/10/01 03:06:08;;;;;;;9.90;6.00;;;;;;;9.24;100.00;97478.27;111716;1244;22505;-81
2023/10/01 03:11:25;;;;;;;9.00;5.60;;;;;;;9.22;100.00;97486.30;111727;1244;25372;-81
2023/10/01 03:13:56;;;;;;;9.50;5.80;;;;;;;9.22;100.00;97483.02;111721;1244;22639;-81
2023/10/01 03:16:44;;;;;;;12.50;6.20;;;;;;;9.26;100.00;97488.55;111807;1244;22490;-81
2023/10/01 03:19:18;;;;;;;11.20;6.10;;;;;;;9.29;100.00;97487.32;111785;1244;24244;-81
2023/10/01 03:24:39;;;;;;;9.00;5.90;;;;;;;9.34;100.00;97486.38;111723;1244;26769;-81
2023/10/01 03:27:19;;;;;;;10.60;7.10;;;;;;;9.36;100.00;97486.08;111735;1244;25329;-81
2023/10/01 03:29:53;;;;;;;11.60;7.50;;;;;;;9.36;100.00;97482.81;111749;1244;24084;-81
2023/10/01 03:32:28;;;;;;;10.70;6.90;;;;;;;9.35;100.00;97481.20;111726;1244;24385;-81
2023/10/01 03:35:03;;;;;;;12.60;6.40;;;;;;;9.34;100.00;97481.94;111702;1244;22718;-81
2023/10/01 03:37:38;;;;;;;10.00;6.10;;;;;;;9.35;100.00;97482.32;111688;1244;22539;-81
2023/10/01 03:40:18;;;;;;;10.20;7.00;;;;;;;9.37;100.00;97486.84;111737;1244;25269;-81
2023/10/01 03:42:51;;;;;;;10.00;6.70;;;;;;;9.37;100.00;97487.36;111741;1244;25282;-81
2023/10/01 03:45:37;;;;;;;11.60;6.70;;;;;;;9.38;100.00;97485.89;111715;1244;25225;-82
2023/10/01 03:48:07;;;;;;;11.20;6.60;;;;;;;9.40;100.00;97482.95;111725;1244;22491;-81
2023/10/01 03:50:45;;;;;;;9.80;6.20;;;;;;;9.41;100.00;97480.14;111712;1244;23794;-81
2023/10/01 03:53:18;;;;;;;10.80;6.70;;;;;;;9.41;100.00;97476.06;111696;1244;22536;-81
2023/10/01 03:55:47;;;;;;;10.30;6.70;;;;;;;9.40;100.00;97479.50;111705;1244;26663;-81
2023/10/01 03:58:25;;;;;;;9.30;6.30;;;;;;;9.38;100.00;97480.80;111698;1244;22511;-81
2023/10/01 04:00:54;;;;;;;10.70;6.30;;;;;;;9.36;100.00;97483.12;111704;1244;24223;-81
2023/10/01 04:03:23;;;;;;;13.50;6.40;;;;;;;9.34;100.00;97483.15;111686;1244;22504;-81
2023/10/01 04:05:56;;;;;;;7.20;4.20;;;;;;;9.35;100.00;97480.46;111720;1244;22826;-81
2023/10/01 04:08:25;;;;;;;11.20;6.20;;;;;;;9.35;100.00;97476.13;111691;1244;22506;-81
2023/10/01 04:10:58;;;;;;;10.70;5.90;;;;;;;9.36;100.00;97473.18;111721;1244;22532;-81
2023/10/01 04:13:27;;;;;;;12.80;5.60;;;;;;;9.37;100.00;97474.77;111699;1244;38838;-81
2023/10/01 04:15:56;;;;;;;9.80;5.20;;;;;;;9.34;100.00;97471.77;111748;1244;22504;-81
2023/10/01 04:18:28;;;;;;;7.90;4.10;;;;;;;9.31;100.00;97477.09;111698;1244;22485;-81
2023/10/01 04:23:48;;;;;;;10.60;4.40;;;;;;;9.23;100.00;97482.34;111712;1244;22492;-81
2023/10/01 04:26:17;;;;;;;8.20;4.00;;;;;;;9.21;100.00;97482.60;111717;1244;22605;-81
2023/10/01 04:28:47;;;;;;;9.40;4.30;;;;;;;9.20;100.00;97478.19;111709;1244;22514;-81
2023/10/01 04:31:42;;;;;;;11.10;4.20;;;;;;;9.21;100.00;97474.97;111711;1244;22505;-81
2023/10/01 04:34:11;;;;;;;8.20;4.10;;;;;;;9.21;100.00;97475.40;111685;1244;22547;-81
2023/10/01 04:36:39;;;;;;;7.80;4.50;;;;;;;9.25;100.00;97471.02;111695;1244;24180;-81
2023/10/01 04:39:08;;;;;;;10.00;4.40;;;;;;;9.28;100.00;97474.45;111727;1244;22624;-81
2023/10/01 04:41:37;;;;;;;11.40;4.50;;;;;;;9.31;100.00;97477.04;111721;1244;23326;-81
2023/10/01 04:44:06;;;;;;;11.10;4.80;;;;;;;9.36;100.00;97482.10;111712;1244;24038;-81
2023/10/01 04:46:37;;;;;;;9.30;3.50;;;;;;;9.40;100.00;97478.92;111692;1244;22923;-81
2023/10/01 04:49:08;;;;;;;9.90;4.40;;;;;;;9.44;100.00;97475.59;111739;1244;22650;-81
2023/10/01 04:51:45;;;;;;;9.70;4.80;;;;;;;9.51;100.00;97478.78;111712;1244;22510;-81
2023/10/01 04:54:17;;;;;;;10.50;4.50;;;;;;;9.57;100.00;97487.94;111691;1244;22599;-81
2023/10/01 04:56:48;;;;;;;10.00;4.60;;;;;;;9.63;100.00;97482.70;111706;1244;22544;-81
2023/10/01 04:59:18;;;;;;;11.80;4.40;;;;;;;9.68;100.00;97486.71;111728;1244;25923;-81
2023/10/01 05:01:47;;;;;;;11.10;4.40;;;;;;;9.70;100.00;97481.67;111674;1244;25887;-81
2023/10/01 05:04:16;;;;;;;10.80;4.60;;;;;;;9.72;100.00;97484.29;111696;1244;24864;-80
2023/10/01 05:06:59;;;;;;;9.60;4.10;;;;;;;9.72;100.00;97486.30;111693;1244;22500;-81
2023/10/01 05:09:29;;;;;;;11.30;3.80;;;;;;;9.71;100.00;97488.25;111692;1244;23294;-81
2023/10/01 05:11:58;;;;;;;10.20;3.90;;;;;;;9.72;100.00;97486.72;111738;1244;22508;-81
2023/10/01 05:14:27;;;;;;;15.00;4.10;;;;;;;9.73;100.00;97487.27;111776;1244;22542;-80
2023/10/01 05:17:07;;;;;;;12.50;3.80;;;;;;;9.75;100.00;97499.35;111733;1244;22526;-81
2023/10/01 05:19:37;;;;;;;8.90;3.60;;;;;;;9.76;100.00;97503.39;111710;1244;22536;-81
2023/10/01 05:22:06;;;;;;;11.90;4.70;;;;;;;9.76;100.00;97502.05;111741;1244;22504;-81
2023/10/01 05:24:35;;;;;;;11.20;4.10;;;;;;;9.77;100.00;97511.49;111680;1228;22561;-81
2023/10/01 05:27:08;;;;;;;11.00;4.20;;;;;;;9.80;100.00;97512.46;111725;1244;22502;-81
2023/10/01 05:29:38;;;;;;;7.40;3.90;;;;;;;9.82;100.00;97517.84;111730;1244;22563;-81
2023/10/01 05:32:07;;;;;;;11.60;4.50;;;;;;;9.85;100.00;97520.45;111762;1244;22529;-80
2023/10/01 05:34:38;;;;;;;7.80;3.70;;;;;;;9.88;100.00;97523.15;111701;1244;22569;-80
2023/10/01 05:37:09;;;;;;;9.90;4.20;;;;;;;9.91;100.00;97524.27;111718;1244;22505;-81
2023/10/01 05:42:24;;;;;;;8.80;3.90;;;;;;;9.94;100.00;97520.16;111735;1244;22529;-81
2023/10/01 05:44:54;;;;;;;7.00;4.00;;;;;;;9.97;100.00;97515.63;111712;1244;22538;-81
2023/10/01 05:47:41;;;;;;;8.00;4.20;;;;;;;9.98;100.00;97510.39;111733;1244;22530;-81
2023/10/01 05:50:12;;;;;;;8.10;4.00;;;;;;;9.97;100.00;97506.79;111733;1244;22506;-81
2023/10/01 05:52:41;;;;;;;7.70;4.40;;;;;;;9.94;100.00;97514.19;111715;1244;22525;-81
2023/10/01 05:55:12;;;;;;;9.00;4.80;;;;;;;9.92;100.00;97511.47;111701;1244;22645;-81
2023/10/01 05:57:41;;;;;;;8.50;4.30;;;;;;;9.93;100.00;97512.86;111720;1244;22505;-81
2023/10/01 06:00:17;;;;;;;9.50;4.70;;;;;;;9.96;100.00;97511.81;111683;1244;22555;-81
2023/10/01 06:02:47;;;;;;;8.70;4.40;;;;;;;9.99;100.00;97502.85;111727;1244;22617;-81
2023/10/01 06:05:25;;;;;;;9.20;4.20;;;;;;;10.00;100.00;97506.52;111700;1244;22495;-81
2023/10/01 06:07:55;;;;;;;10.50;3.90;;;;;;;10.01;100.00;97512.93;111724;1244;22536;-81
2023/10/01 06:10:26;;;;;;;10.40;4.70;;;;;;;10.02;100.00;97509.71;111739;1244;25225;-81
2023/10/01 06:13:01;;;;;;;7.30;4.70;;;;;;;10.04;100.00;97499.02;111711;1244;22533;-80
2023/10/01 06:15:33;;;;;;;13.50;5.50;;;;;;;10.06;100.00;97503.70;111762;1244;22529;-81
2023/10/01 06:18:05;;;;;;;7.70;3.80;;;;;;;10.07;100.00;97503.44;111732;1241;22511;-80
2023/10/01 06:20:33;;;;;;;8.30;4.50;;;;;;;10.10;100.00;97510.66;111725;1244;24191;-80
2023/10/01 06:23:02;;;;;;;7.30;4.00;;;;;;;10.12;100.00;97515.98;111712;1244;22989;-79
2023/10/01 06:25:41;;;;;;;10.40;4.20;;;;;;;10.13;100.00;97517.58;111746;1244;22500;-81
2023/10/01 06:28:10;;;;;;;8.70;4.00;;;;;;;10.15;100.00;97518.14;111756;1244;22555;-81
2023/10/01 06:30:40;;;;;;;10.70;4.10;;;;;;;10.17;100.00;97522.02;111726;1244;22514;-80
2023/10/01 06:33:24;;;;;;;11.20;4.80;;;;;;;10.20;100.00;97523.41;111713;1244;23860;-80
2023/10/01 06:36:15;;;;;;;9.70;4.90;;;;;;;10.20;100.00;97521.88;111723;1244;22519;-80
2023/10/01 06:38:45;;;;;;;10.00;5.10;;;;;;;10.21;100.00;97529.09;111746;1244;22492;-80
2023/10/01 06:41:19;;;;;;;11.20;4.60;;;;;;;10.22;100.00;97529.34;111750;1244;22541;-81
2023/10/01 06:43:49;;;;;;;8.50;4.00;;;;;;;10.24;100.00;97528.82;111697;1244;25519;-80
2023/10/01 06:46:22;;;;;;;9.10;4.30;;;;;;;10.27;100.00;97536.81;111719;1244;22522;-80
2023/10/01 06:48:54;;;;;;;10.40;4.40;;;;;;;10.30;100.00;97532.98;111714;1244;22533;-80
2023/10/01 06:51:25;;;;;;;10.20;3.90;;;;;;;10.33;100.00;97530.86;111711;1244;22503;-80
2023/10/01 06:53:58;;;;;;;5.90;3.60;;;;;;;10.36;100.00;97526.54;111699;1244;22519;-80
2023/10/01 06:56:30;;;;;;;9.50;3.80;;;;;;;10.39;100.00;97524.11;111696;1244;22502;-81
2023/10/01 06:59:13;;;;;;;7.60;3.60;;;;;;;10.43;100.00;97520.86;111781;1244;22511;-81
2023/10/01 07:01:47;;;;;;;12.40;3.70;;;;;;;10.48;100.00;97523.86;111744;1244;22706;-81
2023/10/01 07:04:20;;;;;;;11.80;4.30;;;;;;;10.53;100.00;97523.57;111722;1244;22940;-80
2023/10/01 07:06:51;;;;;;;8.80;4.00;;;;;;;10.58;100.00;97530.83;111725;1244;25993;-81
2023/10/01 07:09:34;;;;;;;12.90;4.90;;;;;;;10.63;100.00;97533.14;111743;1237;24284;-81
2023/10/01 07:12:06;;;;;;;9.10;3.70;;;;;;;10.70;100.00;97536.53;111774;1244;24295;-81
2023/10/01 07:14:43;;;;;;;7.50;3.60;;;;;;;10.77;100.00;97533.49;111713;1244;22498;-81
2023/10/01 07:17:14;;;;;;;10.80;4.20;;;;;;;10.81;100.00;97534.62;111746;1244;24208;-81
2023/10/01 07:19:46;;;;;;;9.90;4.10;;;;;;;10.83;100.00;97540.36;111712;1244;26385;-80
2023/10/01 07:22:15;;;;;;;9.10;4.00;;;;;;;10.86;100.00;97544.48;111766;1244;22512;-81
2023/10/01 07:24:44;;;;;;;11.00;3.00;;;;;;;10.92;100.00;97549.75;111698;1244;23342;-81
2023/10/01 07:27:17;;;;;;;6.80;3.30;;;;;;;11.01;100.00;97545.78;111767;1244;25242;-81
2023/10/01 07:29:47;;;;;;;12.30;3.50;;;;;;;11.11;100.00;97552.41;111749;1244;24317;-81
2023/10/01 07:32:15;;;;;;;9.00;3.20;;;;;;;11.18;100.00;97551.76;111747;1244;22538;-81
2023/10/01 07:34:48;;;;;;;9.40;2.60;;;;;;;11.25;100.00;97544.24;111723;1244;22619;-81
2023/10/01 07:37:23;;;;;;;10.00;3.20;;;;;;;11.30;100.00;97546.39;111754;1244;22506;-81
2023/10/01 07:39:55;;;;;;;8.40;3.10;;;;;;;11.35;100.00;97542.27;111622;1237;160047;-81
2023/10/01 07:42:25;;;;;;;10.20;3.00;;;;;;;11.41;100.00;97542.02;111798;1244;22485;-81
2023/10/01 07:44:56;;;;;;;12.40;3.60;;;;;;;11.47;100.00;97541.57;111704;1244;24321;-81
2023/10/01 07:47:33;;;;;;;8.60;3.40;;;;;;;11.53;100.00;97545.23;111752;1244;22515;-81
2023/10/01 07:50:03;;;;;;;13.40;3.40;;;;;;;11.55;100.00;97546.02;111743;1244;22937;-81
2023/10/01 07:52:36;;;;;;;13.70;3.10;;;;;;;11.60;100.00;97545.64;111748;1244;25247;-81
2023/10/01 07:57:51;;;;;;;7.50;2.80;;;;;;;11.71;100.00;97550.84;111748;1244;24326;-81
2023/10/01 08:00:28;;;;;;;7.50;3.10;;;;;;;11.77;99.87;97551.38;111727;1244;23103;-82
2023/10/01 08:05:47;;;;;;;8.60;3.10;;;;;;;11.84;99.31;97540.33;111686;1244;23262;-81
2023/10/01 08:08:35;;;;;;;17.70;3.50;;;;;;;11.87;99.10;97548.40;111691;1244;22502;-81
2023/10/01 08:11:37;;;;;;;8.20;3.20;;;;;;;11.94;99.48;97543.77;111747;1244;22532;-81
2023/10/01 08:13:55;;;;;;;7.80;3.10;;;;;;;11.93;99.28;97543.45;111735;1244;22504;-81
2023/10/01 08:16:23;;;;;;;;;;;;;;;11.88;99.18;97542.88;111723;1244;22479;-81
2023/10/01 08:18:57;;;;;;;7.50;3.10;;;;;;;11.83;98.93;97542.19;111689;1244;22546;-81
2023/10/01 08:21:37;;;;;;;7.00;3.00;;;;;;;11.84;99.27;97542.61;111685;1244;22498;-81
2023/10/01 08:24:09;;;;;;;9.30;3.10;;;;;;;11.84;99.10;97540.91;111643;1244;45821;-81
2023/10/01 08:26:43;;;;;;;10.00;4.20;;;;;;;11.87;99.07;97537.83;111699;1244;22515;-81
2023/10/01 08:29:15;;;;;;;10.30;3.10;;;;;;;11.92;98.98;97534.52;111682;1244;23979;-81
2023/10/01 08:35:01;;;;;;;10.40;3.70;;;;;;;11.99;98.85;97529.08;111659;1244;25163;-81
2023/10/01 08:37:31;;;;;;;11.20;3.40;;;;;;;11.98;98.74;97533.13;111681;1244;22488;-81
2023/10/01 08:40:00;;;;;;;7.40;2.70;;;;;;;12.01;98.74;97534.08;111707;1237;24352;-81
2023/10/01 08:42:33;;;;;;;8.50;4.10;;;;;;;12.03;98.19;97530.09;111723;1244;22535;-81
2023/10/01 08:45:06;;;;;;;8.80;3.10;;;;;;;12.08;98.43;97527.00;111827;1244;22585;-81
2023/10/01 08:47:37;;;;;;;8.90;4.30;;;;;;;12.14;98.65;97521.86;111777;1230;22508;-81
2023/10/01 08:50:19;;;;;;;6.80;3.70;;;;;;;12.14;98.51;97525.73;111740;1244;22514;-80
2023/10/01 08:53:00;;;;;;;7.80;3.30;;;;;;;12.15;98.30;97517.77;111756;1244;22515;-81
2023/10/01 08:55:39;;;;;;;10.10;4.00;;;;;;;12.16;98.04;97517.66;111771;1244;22485;-81
2023/10/01 08:58:25;;;;;;;9.20;4.20;;;;;;;12.28;98.57;97515.48;111844;1244;22507;-80
2023/10/01 09:01:10;;;;;;;9.70;3.90;;;;;;;12.41;98.85;97517.65;111770;1244;22631;-81
2023/10/01 09:03:39;;;;;;;7.50;3.70;;;;;;;12.51;98.45;97519.71;111757;1244;22516;-80
2023/10/01 09:06:24;;;;;;;12.20;3.80;;;;;;;12.68;98.87;97530.13;111767;1244;22512;-81
2023/10/01 09:08:54;;;;;;;6.90;3.10;;;;;;;12.88;98.58;97532.58;111779;1244;22511;-82
2023/10/01 09:11:42;;;;;;;11.40;3.70;;;;;;;13.02;98.06;97532.86;111750;1244;25292;-81
2023/10/01 09:14:18;;;;;;;7.50;3.60;;;;;;;13.17;98.01;97533.89;111735;1244;28120;-81
2023/10/01 09:16:57;;;;;;;9.50;3.70;;;;;;;13.23;97.35;97538.52;111736;1244;22504;-81
2023/10/01 09:19:44;;;;;;;6.60;2.80;;;;;;;13.30;96.93;97537.64;111792;1244;22525;-81
2023/10/01 09:22:19;;;;;;;7.60;2.90;;;;;;;13.29;96.16;97536.74;111753;1244;22524;-81
2023/10/01 09:24:56;;;;;;;8.00;2.50;;;;;;;13.27;95.51;97530.15;111725;1244;22534;-81
2023/10/01 09:27:30;;;;;;;9.20;3.50;;;;;;;13.20;95.12;97533.52;111825;1243;22521;-80
2023/10/01 09:32:51;;;;;;;9.20;2.60;;;;;;;13.28;95.25;97529.50;111763;1244;22512;-81
2023/10/01 09:35:31;;;;;;;7.60;3.00;;;;;;;13.28;95.08;97529.61;111729;1244;26692;-80
2023/10/01 09:38:10;;;;;;;;;;;;;;;13.29;95.26;97524.81;111773;1244;22620;-81
2023/10/01 09:40:42;;;;;;;7.90;2.90;;;;;;;13.34;95.17;97524.78;111785;1243;22578;-81
2023/10/01 09:43:24;;;;;;;9.50;2.90;;;;;;;13.41;95.35;97521.77;111746;1244;22512;-80
2023/10/01 09:45:57;;;;;;;11.50;3.30;;;;;;;13.64;96.06;97520.53;111772;1244;22502;-81
2023/10/01 09:48:33;;;;;;;8.60;3.30;;;;;;;13.89;95.59;97521.45;111781;1244;25432;-82
2023/10/01 09:51:13;;;;;;;9.90;2.90;;;;;;;14.05;95.26;97523.52;111750;1244;22528;-81
2023/10/01 09:53:56;;;;;;;9.10;2.90;;;;;;;14.09;94.32;97523.08;111731;1244;22488;-81
2023/10/01 09:56:26;;;;;;;12.40;3.30;;;;;;;14.06;93.85;97520.74;111787;1244;22522;-82
2023/10/01 09:59:01;;;;;;;9.40;3.00;;;;;;;14.10;93.92;97513.90;111834;1244;22604;-81
2023/10/01 10:01:33;;;;;;;7.30;3.10;;;;;;;14.41;95.32;97511.41;111796;1244;22492;-81
2023/10/01 10:04:04;;;;;;;7.70;2.60;;;;;;;14.83;95.04;97512.63;111771;1244;22512;-81
2023/10/01 10:06:34;;;;;;;8.30;2.40;;;;;;;14.90;93.09;97516.60;111746;1244;24211;-82
2023/10/01 10:09:04;;;;;;;9.40;2.70;;;;;;;14.79;92.29;97515.23;111765;1244;22509;-81
2023/10/01 10:11:37;;;;;;;5.90;2.40;;;;;;;14.73;91.99;97513.41;111820;1244;25425;-81
2023/10/01 10:14:39;;;;;;;10.70;3.20;;;;;;;14.63;91.16;97513.47;111778;1244;23785;-81
2023/10/01 10:17:18;;;;;;;7.60;2.60;;;;;;;14.46;90.71;97505.30;111728;1244;24240;-81
2023/10/01 10:20:15;;;;;;;7.10;2.50;;;;;;;14.40;91.07;97509.18;111783;1244;25312;-81
2023/10/01 10:23:13;;;;;;;12.70;3.90;;;;;;;14.37;91.16;97506.27;111783;1244;22528;-81
2023/10/01 10:25:43;;;;;;;6.90;3.10;;;;;;;14.39;91.22;97505.56;111730;1244;23130;-81
2023/10/01 10:28:24;;;;;;;7.80;3.00;;;;;;;14.43;91.07;97503.06;111798;1244;26434;-81
2023/10/01 10:31:32;;;;;;;10.70;3.20;;;;;;;14.43;91.07;97500.51;111758;1244;22497;-81
2023/10/01 10:34:22;;;;;;;8.50;2.90;;;;;;;14.49;90.98;97503.88;111730;1243;41186;-81
2023/10/01 10:36:54;;;;;;;7.80;2.80;;;;;;;14.46;90.29;97503.38;111759;1229;22521;-81
2023/10/01 10:40:13;;;;;;;8.70;2.60;;;;;;;14.45;90.45;97505.05;111767;1244;22492;-81
2023/10/01 10:42:42;;;;;;;8.30;2.10;;;;;;;14.45;88.90;97504.92;111786;1244;22517;-81
2023/10/01 10:45:21;;;;;;;7.80;2.10;;;;;;;14.47;88.81;97507.31;111737;1244;22739;-81
2023/10/01 10:48:02;;;;;;;9.00;2.30;;;;;;;14.50;88.51;97503.20;111781;1244;22505;-81
2023/10/01 10:50:48;;;;;;;6.20;2.10;;;;;;;14.51;88.48;97505.85;111774;1244;22595;-81
2023/10/01 10:53:21;;;;;;;7.10;2.30;;;;;;;14.54;88.68;97504.23;111718;1244;25225;-81
2023/10/01 10:56:00;;;;;;;6.50;2.30;;;;;;;14.60;89.30;97500.47;111773;1244;22510;-82
2023/10/01 10:58:37;;;;;;;6.20;2.30;;;;;;;14.60;88.08;97492.52;111775;1244;22516;-81
2023/10/01 11:01:16;;;;;;;10.70;2.50;;;;;;;14.52;87.11;97495.65;111759;1244;22495;-81
2023/10/01 11:03:48;;;;;;;6.10;2.30;;;;;;;14.47;86.90;97495.89;111734;1244;22491;-82
2023/10/01 11:06:19;;;;;;;7.10;1.80;;;;;;;14.46;86.33;97495.27;111866;1244;22505;-81
2023/10/01 11:08:52;;;;;;;6.90;2.50;;;;;;;14.46;85.79;97495.11;111791;1244;24172;-81
2023/10/01 11:11:30;;;;;;;5.70;2.10;;;;;;;14.50;85.73;97495.08;111809;1244;22536;-81
2023/10/01 11:14:02;;;;;;;9.70;2.40;;;;;;;14.58;85.87;97490.26;111807;1244;22508;-82
2023/10/01 11:16:37;;;;;;;10.60;3.30;;;;;;;14.64;85.36;97490.99;111833;1244;22496;-81
2023/10/01 11:19:14;;;;;;;7.70;1.70;;;;;;;14.76;85.92;97494.44;111797;1244;23073;-81
2023/10/01 11:21:59;;;;;;;8.70;2.50;;;;;;;15.03;85.81;97490.30;111810;1244;22596;-81
2023/10/01 11:24:31;;;;;;;6.30;1.90;;;;;;;15.27;85.05;97486.80;111800;1244;22551;-82
2023/10/01 11:27:22;;;;;;;9.00;2.50;;;;;;;15.37;84.17;97484.60;111835;1244;22500;-81
2023/10/01 11:30:13;;;;;;;9.90;3.50;;;;;;;15.51;84.14;97481.32;111777;1244;22509;-82
2023/10/01 11:32:59;;;;;;;8.20;2.00;;;;;;;15.54;83.51;97479.34;111776;1244;22506;-82
2023/10/01 11:35:32;;;;;;;5.20;2.30;;;;;;;15.48;82.89;97480.81;111757;1244;22662;-82
2023/10/01 11:38:08;;;;;;;10.00;2.80;;;;;;;15.37;82.84;97483.48;111765;1244;22510;-82
2023/10/01 11:43:32;;;;;;;;;;;;;;;15.49;82.99;97481.55;111768;1244;33642;-81
2023/10/01 11:46:20;;;;;;;5.40;2.30;;;;;;;15.45;82.10;97481.86;111781;1244;22679;-82
2023/10/01 11:48:59;;;;;;;9.70;2.60;;;;;;;15.33;81.32;97477.15;111754;1244;24369;-82
2023/10/01 11:51:31;;;;;;;8.20;2.40;;;;;;;15.31;81.36;97474.51;111801;1244;22505;-82
2023/10/01 11:54:09;;;;;;;8.70;2.20;;;;;;;15.27;81.19;97475.95;111765;1244;25602;-82
2023/10/01 11:56:42;;;;;;;6.80;2.20;;;;;;;15.26;80.65;97474.42;111779;1244;22498;-82
2023/10/01 11:59:20;;;;;;;8.10;2.20;;;;;;;15.17;80.23;97468.66;111827;1244;25267;-82
2023/10/01 12:01:52;;;;;;;6.90;2.00;;;;;;;15.12;80.46;97468.94;111784;1244;22508;-82
2023/10/01 12:07:16;;;;;;;6.90;1.90;;;;;;;15.11;80.17;97463.77;111786;1244;22567;-81
2023/10/01 12:09:48;;;;;;;8.40;2.50;;;;;;;15.19;80.32;97464.30;111813;1244;22546;-82
2023/10/01 12:12:21;;;;;;;9.50;2.60;;;;;;;15.35;80.13;97465.75;111799;1244;25212;-82
2023/10/01 12:14:54;;;;;;;9.20;2.10;;;;;;;15.50;80.30;97460.75;111779;1244;23099;-81
2023/10/01 12:17:26;;;;;;;6.60;1.90;;;;;;;15.52;79.47;97457.20;111810;1244;22528;-82
2023/10/01 12:19:58;;;;;;;9.20;1.80;;;;;;;15.43;79.08;97460.66;111840;1244;24339;-82